sensor_id;sensor_type;location;lat;lon;timestamp;P1;durP1;ratioP1;P2;durP2;ratioP2
86329;SDS011;76985;51.042;13.978;2024-03-23T00:53:58;7.25;;;4.68;;
86329;SDS011;76985;51.042;13.978;2024-03-23T00:56:24;6.97;;;4.45;;
86329;SDS011;76985;51.042;13.978;2024-03-23T00:58:50;8.85;;;4.75;;
86329;SDS011;76985;51.042;13.978;2024-03-23T01:01:16;7.13;;;4.20;;
86329;SDS011;76985;51.042;13.978;2024-03-23T01:03:42;6.53;;;4.32;;
86329;SDS011;76985;51.042;13.978;2024-03-23T01:06:09;6.82;;;4.22;;
86329;SDS011;76985;51.042;13.978;2024-03-23T01:08:35;7.93;;;4.35;;
86329;SDS011;76985;51.042;13.978;2024-03-23T01:11:01;7.00;;;4.43;;
86329;SDS011;76985;51.042;13.978;2024-03-23T01:13:31;7.65;;;4.03;;
86329;SDS011;76985;51.042;13.978;2024-03-23T01:15:57;7.28;;;4.72;;
86329;SDS011;76985;51.042;13.978;2024-03-23T01:18:23;6.60;;;4.20;;
86329;SDS011;76985;51.042;13.978;2024-03-23T01:20:52;7.47;;;4.22;;
86329;SDS011;76985;51.042;13.978;2024-03-23T01:23:18;5.97;;;4.25;;
86329;SDS011;76985;51.042;13.978;2024-03-23T01:25:44;10.75;;;4.50;;
86329;SDS011;76985;51.042;13.978;2024-03-23T01:28:17;7.72;;;4.38;;
86329;SDS011;76985;51.042;13.978;2024-03-23T01:30:43;6.93;;;4.45;;
86329;SDS011;76985;51.042;13.978;2024-03-23T01:33:10;7.78;;;4.50;;
86329;SDS011;76985;51.042;13.978;2024-03-23T01:35:36;8.27;;;4.63;;
86329;SDS011;76985;51.042;13.978;2024-03-23T01:38:03;7.95;;;4.82;;
86329;SDS011;76985;51.042;13.978;2024-03-23T01:40:29;7.45;;;5.13;;
86329;SDS011;76985;51.042;13.978;2024-03-23T01:42:58;8.35;;;4.30;;
86329;SDS011;76985;51.042;13.978;2024-03-23T01:45:29;9.30;;;4.03;;
86329;SDS011;76985;51.042;13.978;2024-03-23T01:47:58;8.15;;;4.93;;
86329;SDS011;76985;51.042;13.978;2024-03-23T01:50:25;6.90;;;4.50;;
86329;SDS011;76985;51.042;13.978;2024-03-23T01:52:52;7.93;;;4.63;;
86329;SDS011;76985;51.042;13.978;2024-03-23T01:55:20;6.55;;;3.92;;
86329;SDS011;76985;51.042;13.978;2024-03-23T01:57:46;7.13;;;4.88;;
86329;SDS011;76985;51.042;13.978;2024-03-23T02:00:12;7.28;;;4.15;;
86329;SDS011;76985;51.042;13.978;2024-03-23T02:02:43;7.25;;;4.90;;
86329;SDS011;76985;51.042;13.978;2024-03-23T02:05:12;8.13;;;4.53;;
86329;SDS011;76985;51.042;13.978;2024-03-23T02:07:39;8.43;;;5.43;;
86329;SDS011;76985;51.042;13.978;2024-03-23T02:10:07;9.07;;;4.95;;
86329;SDS011;76985;51.042;13.978;2024-03-23T02:12:35;8.18;;;5.22;;
86329;SDS011;76985;51.042;13.978;2024-03-23T02:15:02;7.40;;;4.75;;
86329;SDS011;76985;51.042;13.978;2024-03-23T02:17:29;9.40;;;5.20;;
86329;SDS011;76985;51.042;13.978;2024-03-23T02:19:57;7.00;;;4.95;;
86329;SDS011;76985;51.042;13.978;2024-03-23T02:22:23;7.90;;;4.72;;
86329;SDS011;76985;51.042;13.978;2024-03-23T02:24:49;9.40;;;5.38;;
86329;SDS011;76985;51.042;13.978;2024-03-23T02:27:15;6.32;;;4.13;;
86329;SDS011;76985;51.042;13.978;2024-03-23T02:29:41;7.97;;;4.72;;
86329;SDS011;76985;51.042;13.978;2024-03-23T02:32:07;7.78;;;4.43;;
86329;SDS011;76985;51.042;13.978;2024-03-23T02:34:35;7.25;;;4.90;;
86329;SDS011;76985;51.042;13.978;2024-03-23T02:37:01;7.97;;;5.47;;
86329;SDS011;76985;51.042;13.978;2024-03-23T02:39:27;8.48;;;5.35;;
86329;SDS011;76985;51.042;13.978;2024-03-23T02:41:54;9.18;;;4.70;;
86329;SDS011;76985;51.042;13.978;2024-03-23T02:44:20;6.78;;;4.57;;
86329;SDS011;76985;51.042;13.978;2024-03-23T02:46:46;9.40;;;4.82;;
86329;SDS011;76985;51.042;13.978;2024-03-23T02:49:13;8.25;;;5.43;;
86329;SDS011;76985;51.042;13.978;2024-03-23T02:51:39;8.27;;;4.97;;
86329;SDS011;76985;51.042;13.978;2024-03-23T02:54:06;12.55;;;6.18;;
86329;SDS011;76985;51.042;13.978;2024-03-23T02:56:33;9.00;;;5.38;;
86329;SDS011;76985;51.042;13.978;2024-03-23T02:59:00;8.68;;;5.65;;
86329;SDS011;76985;51.042;13.978;2024-03-23T03:01:27;10.35;;;6.22;;
86329;SDS011;76985;51.042;13.978;2024-03-23T03:03:53;7.88;;;5.88;;
86329;SDS011;76985;51.042;13.978;2024-03-23T03:06:22;9.80;;;6.10;;
86329;SDS011;76985;51.042;13.978;2024-03-23T03:08:50;7.95;;;5.53;;
86329;SDS011;76985;51.042;13.978;2024-03-23T03:11:17;9.23;;;5.40;;
86329;SDS011;76985;51.042;13.978;2024-03-23T03:13:43;9.65;;;5.80;;
86329;SDS011;76985;51.042;13.978;2024-03-23T03:16:10;12.38;;;6.30;;
86329;SDS011;76985;51.042;13.978;2024-03-23T03:18:38;8.27;;;5.70;;
86329;SDS011;76985;51.042;13.978;2024-03-23T03:21:06;9.80;;;5.90;;
86329;SDS011;76985;51.042;13.978;2024-03-23T03:23:37;10.45;;;6.40;;
86329;SDS011;76985;51.042;13.978;2024-03-23T03:26:06;7.90;;;5.43;;
86329;SDS011;76985;51.042;13.978;2024-03-23T03:28:33;8.20;;;5.20;;
86329;SDS011;76985;51.042;13.978;2024-03-23T03:31:01;8.63;;;5.43;;
86329;SDS011;76985;51.042;13.978;2024-03-23T03:33:27;8.93;;;5.82;;
86329;SDS011;76985;51.042;13.978;2024-03-23T03:35:54;10.27;;;5.72;;
86329;SDS011;76985;51.042;13.978;2024-03-23T03:38:20;9.77;;;5.93;;
86329;SDS011;76985;51.042;13.978;2024-03-23T03:40:47;9.43;;;5.88;;
86329;SDS011;76985;51.042;13.978;2024-03-23T03:43:13;8.38;;;5.32;;
86329;SDS011;76985;51.042;13.978;2024-03-23T03:45:39;9.23;;;5.20;;
86329;SDS011;76985;51.042;13.978;2024-03-23T03:48:05;8.35;;;5.80;;
86329;SDS011;76985;51.042;13.978;2024-03-23T03:50:32;10.15;;;6.43;;
86329;SDS011;76985;51.042;13.978;2024-03-23T03:52:58;8.25;;;5.50;;
86329;SDS011;76985;51.042;13.978;2024-03-23T03:55:24;9.30;;;6.40;;
86329;SDS011;76985;51.042;13.978;2024-03-23T03:57:50;11.48;;;7.20;;
86329;SDS011;76985;51.042;13.978;2024-03-23T04:00:16;12.70;;;7.50;;
86329;SDS011;76985;51.042;13.978;2024-03-23T04:02:42;10.75;;;7.03;;
86329;SDS011;76985;51.042;13.978;2024-03-23T04:05:08;12.13;;;7.10;;
86329;SDS011;76985;51.042;13.978;2024-03-23T04:07:35;12.52;;;6.68;;
86329;SDS011;76985;51.042;13.978;2024-03-23T04:10:01;12.90;;;7.43;;
86329;SDS011;76985;51.042;13.978;2024-03-23T04:12:27;11.98;;;6.93;;
86329;SDS011;76985;51.042;13.978;2024-03-23T04:14:53;28.17;;;18.73;;
86329;SDS011;76985;51.042;13.978;2024-03-23T04:17:19;14.15;;;8.65;;
86329;SDS011;76985;51.042;13.978;2024-03-23T04:19:45;13.90;;;8.75;;
86329;SDS011;76985;51.042;13.978;2024-03-23T04:22:11;14.45;;;8.45;;
86329;SDS011;76985;51.042;13.978;2024-03-23T04:24:38;10.07;;;6.85;;
86329;SDS011;76985;51.042;13.978;2024-03-23T04:27:04;10.00;;;6.22;;
86329;SDS011;76985;51.042;13.978;2024-03-23T04:29:30;8.88;;;5.93;;
86329;SDS011;76985;51.042;13.978;2024-03-23T04:31:56;12.93;;;7.43;;
86329;SDS011;76985;51.042;13.978;2024-03-23T04:34:22;11.02;;;5.60;;
86329;SDS011;76985;51.042;13.978;2024-03-23T04:36:49;10.20;;;6.13;;
86329;SDS011;76985;51.042;13.978;2024-03-23T04:39:15;8.60;;;5.50;;
86329;SDS011;76985;51.042;13.978;2024-03-23T04:41:41;14.45;;;5.47;;
86329;SDS011;76985;51.042;13.978;2024-03-23T04:44:07;7.97;;;5.32;;
86329;SDS011;76985;51.042;13.978;2024-03-23T04:46:33;7.60;;;5.07;;
86329;SDS011;76985;51.042;13.978;2024-03-23T04:48:59;7.68;;;5.25;;
86329;SDS011;76985;51.042;13.978;2024-03-23T04:51:25;8.27;;;5.28;;
86329;SDS011;76985;51.042;13.978;2024-03-23T04:53:51;8.23;;;4.82;;
86329;SDS011;76985;51.042;13.978;2024-03-23T04:56:18;9.00;;;4.97;;
86329;SDS011;76985;51.042;13.978;2024-03-23T04:58:45;73.35;;;8.57;;
86329;SDS011;76985;51.042;13.978;2024-03-23T05:01:11;61.90;;;7.82;;
86329;SDS011;76985;51.042;13.978;2024-03-23T05:03:38;8.10;;;5.18;;
86329;SDS011;76985;51.042;13.978;2024-03-23T05:06:04;8.82;;;5.57;;
86329;SDS011;76985;51.042;13.978;2024-03-23T05:08:31;90.95;;;9.10;;
86329;SDS011;76985;51.042;13.978;2024-03-23T05:10:57;130.80;;;12.25;;
86329;SDS011;76985;51.042;13.978;2024-03-23T05:13:24;9.43;;;6.05;;
86329;SDS011;76985;51.042;13.978;2024-03-23T05:15:53;45.97;;;8.05;;
86329;SDS011;76985;51.042;13.978;2024-03-23T05:18:20;13.43;;;6.20;;
86329;SDS011;76985;51.042;13.978;2024-03-23T05:20:47;118.55;;;10.93;;
86329;SDS011;76985;51.042;13.978;2024-03-23T05:23:13;9.88;;;5.22;;
86329;SDS011;76985;51.042;13.978;2024-03-23T05:25:41;19.38;;;6.10;;
86329;SDS011;76985;51.042;13.978;2024-03-23T05:28:07;7.80;;;5.10;;
86329;SDS011;76985;51.042;13.978;2024-03-23T05:30:33;8.52;;;5.25;;
86329;SDS011;76985;51.042;13.978;2024-03-23T05:32:59;10.45;;;5.93;;
86329;SDS011;76985;51.042;13.978;2024-03-23T05:35:25;13.85;;;6.65;;
86329;SDS011;76985;51.042;13.978;2024-03-23T05:37:51;11.68;;;6.55;;
86329;SDS011;76985;51.042;13.978;2024-03-23T05:40:17;10.90;;;5.93;;
86329;SDS011;76985;51.042;13.978;2024-03-23T05:42:44;21.35;;;7.22;;
86329;SDS011;76985;51.042;13.978;2024-03-23T05:45:10;11.35;;;6.82;;
86329;SDS011;76985;51.042;13.978;2024-03-23T05:47:37;15.75;;;7.55;;
86329;SDS011;76985;51.042;13.978;2024-03-23T05:50:03;15.63;;;8.63;;
86329;SDS011;76985;51.042;13.978;2024-03-23T05:52:30;16.60;;;8.80;;
86329;SDS011;76985;51.042;13.978;2024-03-23T05:54:56;14.38;;;8.18;;
86329;SDS011;76985;51.042;13.978;2024-03-23T05:57:22;12.13;;;7.72;;
86329;SDS011;76985;51.042;13.978;2024-03-23T05:59:48;13.95;;;8.15;;
86329;SDS011;76985;51.042;13.978;2024-03-23T06:02:14;11.63;;;7.47;;
86329;SDS011;76985;51.042;13.978;2024-03-23T06:04:40;10.95;;;7.07;;
86329;SDS011;76985;51.042;13.978;2024-03-23T06:07:06;9.57;;;6.53;;
86329;SDS011;76985;51.042;13.978;2024-03-23T06:09:33;11.30;;;7.40;;
86329;SDS011;76985;51.042;13.978;2024-03-23T06:11:59;16.48;;;8.48;;
86329;SDS011;76985;51.042;13.978;2024-03-23T06:14:25;12.07;;;7.07;;
86329;SDS011;76985;51.042;13.978;2024-03-23T06:16:51;13.43;;;7.68;;
86329;SDS011;76985;51.042;13.978;2024-03-23T06:19:17;11.63;;;7.90;;
86329;SDS011;76985;51.042;13.978;2024-03-23T06:21:43;12.88;;;8.05;;
86329;SDS011;76985;51.042;13.978;2024-03-23T06:24:12;11.60;;;8.23;;
86329;SDS011;76985;51.042;13.978;2024-03-23T06:26:38;12.23;;;7.55;;
86329;SDS011;76985;51.042;13.978;2024-03-23T06:29:04;12.55;;;8.23;;
86329;SDS011;76985;51.042;13.978;2024-03-23T06:31:31;11.95;;;7.78;;
86329;SDS011;76985;51.042;13.978;2024-03-23T06:33:57;10.02;;;7.32;;
86329;SDS011;76985;51.042;13.978;2024-03-23T06:36:23;11.05;;;7.13;;
86329;SDS011;76985;51.042;13.978;2024-03-23T06:38:49;12.15;;;8.27;;
86329;SDS011;76985;51.042;13.978;2024-03-23T06:41:16;12.10;;;7.55;;
86329;SDS011;76985;51.042;13.978;2024-03-23T06:43:43;11.00;;;7.50;;
86329;SDS011;76985;51.042;13.978;2024-03-23T06:46:09;11.25;;;8.02;;
86329;SDS011;76985;51.042;13.978;2024-03-23T06:48:35;11.07;;;7.72;;
86329;SDS011;76985;51.042;13.978;2024-03-23T06:51:01;12.38;;;7.40;;
86329;SDS011;76985;51.042;13.978;2024-03-23T06:53:27;13.15;;;8.75;;
86329;SDS011;76985;51.042;13.978;2024-03-23T06:55:53;10.10;;;7.43;;
86329;SDS011;76985;51.042;13.978;2024-03-23T06:58:23;10.50;;;7.53;;
86329;SDS011;76985;51.042;13.978;2024-03-23T07:00:50;12.93;;;8.40;;
86329;SDS011;76985;51.042;13.978;2024-03-23T07:03:20;13.80;;;8.35;;
86329;SDS011;76985;51.042;13.978;2024-03-23T07:05:47;18.20;;;11.23;;
86329;SDS011;76985;51.042;13.978;2024-03-23T07:08:13;12.45;;;8.15;;
86329;SDS011;76985;51.042;13.978;2024-03-23T07:10:44;13.13;;;9.43;;
86329;SDS011;76985;51.042;13.978;2024-03-23T07:13:10;13.75;;;8.73;;
86329;SDS011;76985;51.042;13.978;2024-03-23T07:15:36;14.57;;;10.13;;
86329;SDS011;76985;51.042;13.978;2024-03-23T07:18:02;14.15;;;9.40;;
86329;SDS011;76985;51.042;13.978;2024-03-23T07:20:28;13.50;;;9.77;;
86329;SDS011;76985;51.042;13.978;2024-03-23T07:22:56;13.05;;;8.98;;
86329;SDS011;76985;51.042;13.978;2024-03-23T07:25:22;15.43;;;9.15;;
86329;SDS011;76985;51.042;13.978;2024-03-23T07:27:50;12.82;;;9.07;;
86329;SDS011;76985;51.042;13.978;2024-03-23T07:30:16;15.23;;;9.50;;
86329;SDS011;76985;51.042;13.978;2024-03-23T07:32:44;11.05;;;7.97;;
86329;SDS011;76985;51.042;13.978;2024-03-23T07:35:10;15.02;;;9.10;;
86329;SDS011;76985;51.042;13.978;2024-03-23T07:37:36;16.35;;;10.60;;
86329;SDS011;76985;51.042;13.978;2024-03-23T07:40:08;15.50;;;9.55;;
86329;SDS011;76985;51.042;13.978;2024-03-23T07:42:35;13.75;;;9.48;;
86329;SDS011;76985;51.042;13.978;2024-03-23T07:45:01;12.63;;;8.93;;
86329;SDS011;76985;51.042;13.978;2024-03-23T07:47:27;23.00;;;15.70;;
86329;SDS011;76985;51.042;13.978;2024-03-23T07:49:55;17.38;;;11.43;;
86329;SDS011;76985;51.042;13.978;2024-03-23T07:52:21;13.30;;;9.73;;
86329;SDS011;76985;51.042;13.978;2024-03-23T07:54:48;14.45;;;9.85;;
86329;SDS011;76985;51.042;13.978;2024-03-23T07:57:14;15.18;;;10.57;;
86329;SDS011;76985;51.042;13.978;2024-03-23T07:59:41;15.07;;;9.73;;
86329;SDS011;76985;51.042;13.978;2024-03-23T08:02:07;16.98;;;11.18;;
86329;SDS011;76985;51.042;13.978;2024-03-23T08:04:33;13.82;;;10.13;;
86329;SDS011;76985;51.042;13.978;2024-03-23T08:06:59;15.77;;;10.65;;
86329;SDS011;76985;51.042;13.978;2024-03-23T08:09:25;13.65;;;9.38;;
86329;SDS011;76985;51.042;13.978;2024-03-23T08:11:52;13.80;;;10.52;;
86329;SDS011;76985;51.042;13.978;2024-03-23T08:14:18;14.68;;;10.63;;
86329;SDS011;76985;51.042;13.978;2024-03-23T08:16:48;16.13;;;11.50;;
86329;SDS011;76985;51.042;13.978;2024-03-23T08:19:16;14.73;;;10.55;;
86329;SDS011;76985;51.042;13.978;2024-03-23T08:21:42;17.05;;;10.75;;
86329;SDS011;76985;51.042;13.978;2024-03-23T08:24:11;16.35;;;12.02;;
86329;SDS011;76985;51.042;13.978;2024-03-23T08:26:37;14.02;;;10.57;;
86329;SDS011;76985;51.042;13.978;2024-03-23T08:29:03;16.50;;;11.70;;
86329;SDS011;76985;51.042;13.978;2024-03-23T08:31:30;15.38;;;11.55;;
86329;SDS011;76985;51.042;13.978;2024-03-23T08:33:56;14.75;;;10.68;;
86329;SDS011;76985;51.042;13.978;2024-03-23T08:36:24;15.75;;;11.07;;
86329;SDS011;76985;51.042;13.978;2024-03-23T08:38:50;13.55;;;9.90;;
86329;SDS011;76985;51.042;13.978;2024-03-23T08:41:20;14.82;;;10.50;;
86329;SDS011;76985;51.042;13.978;2024-03-23T08:43:47;15.00;;;10.43;;
86329;SDS011;76985;51.042;13.978;2024-03-23T08:46:14;15.85;;;12.02;;
86329;SDS011;76985;51.042;13.978;2024-03-23T08:48:42;13.57;;;9.48;;
86329;SDS011;76985;51.042;13.978;2024-03-23T08:51:09;12.80;;;9.73;;
86329;SDS011;76985;51.042;13.978;2024-03-23T08:53:37;15.32;;;10.00;;
86329;SDS011;76985;51.042;13.978;2024-03-23T08:56:04;9.95;;;6.32;;
86329;SDS011;76985;51.042;13.978;2024-03-23T08:58:32;8.07;;;5.72;;
86329;SDS011;76985;51.042;13.978;2024-03-23T09:01:03;9.95;;;5.78;;
86329;SDS011;76985;51.042;13.978;2024-03-23T09:03:30;7.22;;;5.28;;
86329;SDS011;76985;51.042;13.978;2024-03-23T09:05:57;7.50;;;5.20;;
86329;SDS011;76985;51.042;13.978;2024-03-23T09:08:24;7.55;;;5.28;;
86329;SDS011;76985;51.042;13.978;2024-03-23T09:10:52;9.20;;;6.05;;
86329;SDS011;76985;51.042;13.978;2024-03-23T09:13:18;8.02;;;5.63;;
86329;SDS011;76985;51.042;13.978;2024-03-23T09:15:51;7.55;;;5.20;;
86329;SDS011;76985;51.042;13.978;2024-03-23T09:18:22;7.15;;;5.55;;
86329;SDS011;76985;51.042;13.978;2024-03-23T09:20:48;9.25;;;6.70;;
86329;SDS011;76985;51.042;13.978;2024-03-23T09:23:14;8.98;;;5.45;;
86329;SDS011;76985;51.042;13.978;2024-03-23T09:25:40;7.65;;;5.63;;
86329;SDS011;76985;51.042;13.978;2024-03-23T09:28:06;8.48;;;6.00;;
86329;SDS011;76985;51.042;13.978;2024-03-23T09:30:35;7.28;;;5.50;;
86329;SDS011;76985;51.042;13.978;2024-03-23T09:33:11;7.28;;;5.38;;
86329;SDS011;76985;51.042;13.978;2024-03-23T09:35:38;7.63;;;5.88;;
86329;SDS011;76985;51.042;13.978;2024-03-23T09:38:08;8.15;;;5.45;;
86329;SDS011;76985;51.042;13.978;2024-03-23T09:40:35;8.52;;;6.38;;
86329;SDS011;76985;51.042;13.978;2024-03-23T09:43:11;9.10;;;6.88;;
86329;SDS011;76985;51.042;13.978;2024-03-23T09:45:40;9.75;;;7.00;;
86329;SDS011;76985;51.042;13.978;2024-03-23T09:48:07;9.98;;;7.10;;
86329;SDS011;76985;51.042;13.978;2024-03-23T09:50:38;9.43;;;6.63;;
86329;SDS011;76985;51.042;13.978;2024-03-23T09:53:09;8.93;;;7.07;;
86329;SDS011;76985;51.042;13.978;2024-03-23T09:55:37;9.15;;;6.50;;
86329;SDS011;76985;51.042;13.978;2024-03-23T09:58:04;8.90;;;6.65;;
86329;SDS011;76985;51.042;13.978;2024-03-23T10:00:35;11.90;;;7.55;;
86329;SDS011;76985;51.042;13.978;2024-03-23T10:03:02;12.82;;;8.52;;
86329;SDS011;76985;51.042;13.978;2024-03-23T10:05:30;11.45;;;7.80;;
86329;SDS011;76985;51.042;13.978;2024-03-23T10:08:00;14.30;;;9.82;;
86329;SDS011;76985;51.042;13.978;2024-03-23T10:10:43;12.93;;;8.55;;
86329;SDS011;76985;51.042;13.978;2024-03-23T10:13:10;13.38;;;8.35;;
86329;SDS011;76985;51.042;13.978;2024-03-23T10:15:39;11.15;;;7.43;;
86329;SDS011;76985;51.042;13.978;2024-03-23T10:18:18;13.65;;;7.97;;
86329;SDS011;76985;51.042;13.978;2024-03-23T10:20:50;10.98;;;5.30;;
86329;SDS011;76985;51.042;13.978;2024-03-23T10:23:18;7.10;;;4.28;;
86329;SDS011;76985;51.042;13.978;2024-03-23T10:25:44;6.03;;;2.47;;
86329;SDS011;76985;51.042;13.978;2024-03-23T10:28:11;4.03;;;2.20;;
86329;SDS011;76985;51.042;13.978;2024-03-23T10:30:37;4.72;;;2.10;;
86329;SDS011;76985;51.042;13.978;2024-03-23T10:33:07;6.00;;;2.72;;
86329;SDS011;76985;51.042;13.978;2024-03-23T10:35:34;3.10;;;1.10;;
86329;SDS011;76985;51.042;13.978;2024-03-23T10:38:02;0.75;;;0.75;;
86329;SDS011;76985;51.042;13.978;2024-03-23T10:40:35;0.60;;;0.60;;
86329;SDS011;76985;51.042;13.978;2024-03-23T10:43:05;1.92;;;0.70;;
86329;SDS011;76985;51.042;13.978;2024-03-23T10:45:34;1.95;;;1.25;;
86329;SDS011;76985;51.042;13.978;2024-03-23T10:48:00;1.80;;;0.90;;
86329;SDS011;76985;51.042;13.978;2024-03-23T10:50:28;2.67;;;1.30;;
86329;SDS011;76985;51.042;13.978;2024-03-23T10:52:54;2.83;;;1.48;;
86329;SDS011;76985;51.042;13.978;2024-03-23T10:55:24;1.42;;;0.93;;
86329;SDS011;76985;51.042;13.978;2024-03-23T10:57:52;1.30;;;1.08;;
86329;SDS011;76985;51.042;13.978;2024-03-23T11:00:20;0.98;;;0.80;;
86329;SDS011;76985;51.042;13.978;2024-03-23T11:02:49;2.85;;;1.52;;
86329;SDS011;76985;51.042;13.978;2024-03-23T11:08:29;0.98;;;0.68;;
86329;SDS011;76985;51.042;13.978;2024-03-23T11:14:01;0.70;;;0.63;;
86329;SDS011;76985;51.042;13.978;2024-03-23T11:16:47;0.85;;;0.60;;
86329;SDS011;76985;51.042;13.978;2024-03-23T11:19:36;0.82;;;0.70;;
86329;SDS011;76985;51.042;13.978;2024-03-23T11:22:03;0.45;;;0.45;;
86329;SDS011;76985;51.042;13.978;2024-03-23T11:24:32;0.50;;;0.50;;
86329;SDS011;76985;51.042;13.978;2024-03-23T11:26:58;0.60;;;0.60;;
86329;SDS011;76985;51.042;13.978;2024-03-23T11:29:29;1.17;;;0.60;;
86329;SDS011;76985;51.042;13.978;2024-03-23T11:31:56;0.50;;;0.50;;
86329;SDS011;76985;51.042;13.978;2024-03-23T11:34:25;1.65;;;1.05;;
86329;SDS011;76985;51.042;13.978;2024-03-23T11:36:53;3.22;;;1.65;;
86329;SDS011;76985;51.042;13.978;2024-03-23T11:39:29;0.93;;;0.70;;
86329;SDS011;76985;51.042;13.978;2024-03-23T11:41:56;4.32;;;2.50;;
86329;SDS011;76985;51.042;13.978;2024-03-23T11:44:23;1.13;;;0.90;;
86329;SDS011;76985;51.042;13.978;2024-03-23T11:46:51;4.88;;;2.08;;
86329;SDS011;76985;51.042;13.978;2024-03-23T11:49:26;4.22;;;2.90;;
86329;SDS011;76985;51.042;13.978;2024-03-23T11:51:54;1.95;;;1.40;;
86329;SDS011;76985;51.042;13.978;2024-03-23T11:54:21;2.60;;;2.00;;
86329;SDS011;76985;51.042;13.978;2024-03-23T11:59:41;0.60;;;0.50;;
86329;SDS011;76985;51.042;13.978;2024-03-23T12:02:10;1.52;;;1.20;;
86329;SDS011;76985;51.042;13.978;2024-03-23T12:04:37;0.73;;;0.70;;
86329;SDS011;76985;51.042;13.978;2024-03-23T12:07:10;0.75;;;0.40;;
86329;SDS011;76985;51.042;13.978;2024-03-23T12:09:41;0.50;;;0.50;;
86329;SDS011;76985;51.042;13.978;2024-03-23T12:12:14;0.77;;;0.77;;
86329;SDS011;76985;51.042;13.978;2024-03-23T12:14:44;0.50;;;0.50;;
86329;SDS011;76985;51.042;13.978;2024-03-23T12:17:12;0.40;;;0.40;;
86329;SDS011;76985;51.042;13.978;2024-03-23T12:19:39;0.52;;;0.52;;
86329;SDS011;76985;51.042;13.978;2024-03-23T12:22:09;0.70;;;0.70;;
86329;SDS011;76985;51.042;13.978;2024-03-23T12:24:35;2.17;;;1.38;;
86329;SDS011;76985;51.042;13.978;2024-03-23T12:27:10;3.42;;;2.20;;
86329;SDS011;76985;51.042;13.978;2024-03-23T12:29:36;1.15;;;1.00;;
86329;SDS011;76985;51.042;13.978;2024-03-23T12:32:05;3.72;;;1.73;;
86329;SDS011;76985;51.042;13.978;2024-03-23T12:34:31;1.42;;;1.10;;
86329;SDS011;76985;51.042;13.978;2024-03-23T12:36:57;2.15;;;1.48;;
86329;SDS011;76985;51.042;13.978;2024-03-23T12:39:23;0.88;;;0.82;;
86329;SDS011;76985;51.042;13.978;2024-03-23T12:41:50;1.30;;;0.85;;
86329;SDS011;76985;51.042;13.978;2024-03-23T12:44:17;1.60;;;1.13;;
86329;SDS011;76985;51.042;13.978;2024-03-23T12:46:43;1.13;;;1.00;;
86329;SDS011;76985;51.042;13.978;2024-03-23T12:49:10;1.52;;;1.30;;
86329;SDS011;76985;51.042;13.978;2024-03-23T12:51:37;0.93;;;0.85;;
86329;SDS011;76985;51.042;13.978;2024-03-23T12:54:03;0.85;;;0.85;;
86329;SDS011;76985;51.042;13.978;2024-03-23T12:56:29;2.83;;;1.50;;
86329;SDS011;76985;51.042;13.978;2024-03-23T12:58:56;1.48;;;1.20;;
86329;SDS011;76985;51.042;13.978;2024-03-23T13:01:23;1.92;;;1.40;;
86329;SDS011;76985;51.042;13.978;2024-03-23T13:03:50;2.40;;;1.52;;
86329;SDS011;76985;51.042;13.978;2024-03-23T13:06:19;1.15;;;0.98;;
86329;SDS011;76985;51.042;13.978;2024-03-23T13:08:45;1.35;;;1.10;;
86329;SDS011;76985;51.042;13.978;2024-03-23T13:11:12;1.95;;;1.20;;
86329;SDS011;76985;51.042;13.978;2024-03-23T13:13:39;1.48;;;1.13;;
86329;SDS011;76985;51.042;13.978;2024-03-23T13:16:07;1.10;;;1.00;;
86329;SDS011;76985;51.042;13.978;2024-03-23T13:18:34;1.85;;;1.23;;
86329;SDS011;76985;51.042;13.978;2024-03-23T13:21:00;1.23;;;0.98;;
86329;SDS011;76985;51.042;13.978;2024-03-23T13:23:26;1.00;;;0.90;;
86329;SDS011;76985;51.042;13.978;2024-03-23T13:25:52;1.98;;;1.20;;
86329;SDS011;76985;51.042;13.978;2024-03-23T13:28:20;1.67;;;1.10;;
86329;SDS011;76985;51.042;13.978;2024-03-23T13:30:53;2.30;;;1.35;;
86329;SDS011;76985;51.042;13.978;2024-03-23T13:33:20;2.65;;;1.50;;
86329;SDS011;76985;51.042;13.978;2024-03-23T13:35:53;7.45;;;4.95;;
86329;SDS011;76985;51.042;13.978;2024-03-23T13:38:20;2.95;;;2.10;;
86329;SDS011;76985;51.042;13.978;2024-03-23T13:41:04;2.88;;;1.90;;
86329;SDS011;76985;51.042;13.978;2024-03-23T13:43:32;2.60;;;1.80;;
86329;SDS011;76985;51.042;13.978;2024-03-23T13:45:59;3.60;;;2.33;;
86329;SDS011;76985;51.042;13.978;2024-03-23T13:48:26;3.05;;;2.03;;
86329;SDS011;76985;51.042;13.978;2024-03-23T13:53:49;3.30;;;2.55;;
86329;SDS011;76985;51.042;13.978;2024-03-23T13:56:15;3.42;;;2.42;;
86329;SDS011;76985;51.042;13.978;2024-03-23T13:58:42;3.17;;;2.22;;
86329;SDS011;76985;51.042;13.978;2024-03-23T14:01:15;4.15;;;2.00;;
86329;SDS011;76985;51.042;13.978;2024-03-23T14:03:42;3.28;;;1.67;;
86329;SDS011;76985;51.042;13.978;2024-03-23T14:06:09;3.63;;;1.75;;
86329;SDS011;76985;51.042;13.978;2024-03-23T14:08:36;6.68;;;1.90;;
86329;SDS011;76985;51.042;13.978;2024-03-23T14:11:05;5.28;;;4.10;;
86329;SDS011;76985;51.042;13.978;2024-03-23T14:13:32;4.57;;;2.42;;
86329;SDS011;76985;51.042;13.978;2024-03-23T14:15:58;4.93;;;3.90;;
86329;SDS011;76985;51.042;13.978;2024-03-23T14:18:25;11.13;;;9.45;;
86329;SDS011;76985;51.042;13.978;2024-03-23T14:21:00;3.75;;;2.03;;
86329;SDS011;76985;51.042;13.978;2024-03-23T14:23:27;3.92;;;1.50;;
86329;SDS011;76985;51.042;13.978;2024-03-23T14:26:01;4.00;;;2.38;;
86329;SDS011;76985;51.042;13.978;2024-03-23T14:28:27;3.22;;;1.65;;
86329;SDS011;76985;51.042;13.978;2024-03-23T14:30:55;3.75;;;1.38;;
86329;SDS011;76985;51.042;13.978;2024-03-23T14:33:21;6.78;;;2.05;;
86329;SDS011;76985;51.042;13.978;2024-03-23T14:35:54;3.38;;;2.17;;
86329;SDS011;76985;51.042;13.978;2024-03-23T14:38:24;5.75;;;4.75;;
86329;SDS011;76985;51.042;13.978;2024-03-23T14:40:51;3.30;;;1.40;;
86329;SDS011;76985;51.042;13.978;2024-03-23T14:43:18;4.38;;;2.30;;
86329;SDS011;76985;51.042;13.978;2024-03-23T14:46:05;3.42;;;1.90;;
86329;SDS011;76985;51.042;13.978;2024-03-23T14:48:55;3.03;;;1.70;;
86329;SDS011;76985;51.042;13.978;2024-03-23T14:51:21;3.28;;;1.50;;
86329;SDS011;76985;51.042;13.978;2024-03-23T14:53:47;3.75;;;1.38;;
86329;SDS011;76985;51.042;13.978;2024-03-23T14:56:13;2.67;;;1.48;;
86329;SDS011;76985;51.042;13.978;2024-03-23T14:58:41;5.32;;;1.95;;
86329;SDS011;76985;51.042;13.978;2024-03-23T15:01:09;4.45;;;1.77;;
86329;SDS011;76985;51.042;13.978;2024-03-23T15:03:36;3.15;;;1.55;;
86329;SDS011;76985;51.042;13.978;2024-03-23T15:06:04;5.93;;;1.50;;
86329;SDS011;76985;51.042;13.978;2024-03-23T15:08:31;3.03;;;1.60;;
86329;SDS011;76985;51.042;13.978;2024-03-23T15:11:01;3.33;;;1.45;;
86329;SDS011;76985;51.042;13.978;2024-03-23T15:13:34;6.57;;;3.67;;
86329;SDS011;76985;51.042;13.978;2024-03-23T15:16:01;5.43;;;2.03;;
86329;SDS011;76985;51.042;13.978;2024-03-23T15:18:31;6.75;;;3.97;;
86329;SDS011;76985;51.042;13.978;2024-03-23T15:20:59;8.13;;;5.82;;
86329;SDS011;76985;51.042;13.978;2024-03-23T15:23:31;3.80;;;2.25;;
86329;SDS011;76985;51.042;13.978;2024-03-23T15:25:58;8.10;;;2.22;;
86329;SDS011;76985;51.042;13.978;2024-03-23T15:28:27;3.92;;;1.80;;
86329;SDS011;76985;51.042;13.978;2024-03-23T15:31:29;2.90;;;1.60;;
86329;SDS011;76985;51.042;13.978;2024-03-23T15:33:55;20.00;;;12.50;;
86329;SDS011;76985;51.042;13.978;2024-03-23T15:36:22;4.57;;;1.90;;